Time;durP1;ratioP1;P1;durP2;ratioP2;P2;SDS_P1;SDS_P2;PMS_P1;PMS_P2;Temp;Humidity;BMP_temperature;BMP_pressure;BME280_temperature;BME280_humidity;BME280_pressure;Samples;Min_cycle;Max_cycle;Signal;HPM_P1;HPM_P2
2022/05/05 00:00:33;;;;;;;4.63;2.10;;;19.90;41.80;;;;;;5064930;27;20630;-60
2022/05/05 00:02:59;;;;;;;2.20;2.10;;;19.90;41.80;;;;;;5057874;28;20301;-60
2022/05/05 00:05:24;;;;;;;2.00;1.90;;;19.90;41.80;;;;;;5064005;27;20211;-62
2022/05/05 00:07:50;;;;;;;2.03;1.93;;;19.90;41.80;;;;;;5054788;28;20226;-60
2022/05/05 00:15:44;;;;;;;1.90;1.80;;;19.90;41.80;;;;;;5078154;27;20523;-61
2022/05/05 00:18:11;;;;;;;1.77;1.67;;;19.90;41.80;;;;;;5076207;28;20934;-60
2022/05/05 00:20:36;;;;;;;2.13;1.93;;;19.90;41.90;;;;;;5077694;27;20221;-60
2022/05/05 00:23:02;;;;;;;2.07;1.97;;;19.90;41.90;;;;;;5076353;27;20945;-60
2022/05/05 00:25:28;;;;;;;2.37;2.27;;;19.90;41.80;;;;;;5080857;27;20221;-61
2022/05/05 00:27:53;;;;;;;2.10;1.90;;;19.90;41.90;;;;;;5076020;27;20224;-61
2022/05/05 00:30:19;;;;;;;2.00;1.90;;;19.90;41.90;;;;;;5077613;27;20217;-60
2022/05/05 00:32:44;;;;;;;1.83;1.73;;;19.90;41.90;;;;;;5075933;28;20214;-61
2022/05/05 00:35:10;;;;;;;2.10;2.00;;;19.90;41.90;;;;;;5076350;27;20219;-61
2022/05/05 00:37:36;;;;;;;1.90;1.80;;;19.90;41.90;;;;;;5082355;27;20300;-61
2022/05/05 00:40:01;;;;;;;2.10;2.00;;;19.90;41.90;;;;;;5079104;27;21460;-60
2022/05/05 00:42:27;;;;;;;1.90;1.80;;;19.90;41.90;;;;;;5077675;28;20213;-61
2022/05/05 00:44:53;;;;;;;2.40;2.30;;;19.90;41.90;;;;;;5082526;28;20303;-61
2022/05/05 00:47:19;;;;;;;1.90;1.80;;;19.90;41.90;;;;;;5078040;27;20225;-61
2022/05/05 00:49:49;;;;;;;2.27;2.00;;;19.90;41.90;;;;;;5077602;27;20363;-60
2022/05/05 00:52:14;;;;;;;1.97;1.87;;;19.90;41.90;;;;;;5078085;27;20512;-61
2022/05/05 00:54:40;;;;;;;2.10;2.00;;;19.90;41.90;;;;;;5076481;27;21159;-61
2022/05/05 00:57:07;;;;;;;1.70;1.60;;;19.90;41.90;;;;;;5074391;27;20217;-61
2022/05/05 00:59:33;;;;;;;1.93;1.83;;;19.90;41.90;;;;;;5081641;27;20570;-61
2022/05/05 01:01:58;;;;;;;1.80;1.70;;;19.90;42.00;;;;;;5078715;27;20446;-61
2022/05/05 01:04:25;;;;;;;2.33;2.10;;;19.90;42.00;;;;;;5077734;27;20275;-62
2022/05/05 01:06:51;;;;;;;1.93;1.83;;;19.90;41.90;;;;;;5078051;27;20218;-61
2022/05/05 01:09:17;;;;;;;2.40;2.20;;;19.90;41.90;;;;;;5081822;27;20810;-61
2022/05/05 01:11:43;;;;;;;1.90;1.80;;;19.90;42.00;;;;;;5081405;27;20233;-61
2022/05/05 01:14:09;;;;;;;2.20;1.80;;;19.90;41.90;;;;;;5083067;27;20465;-61
2022/05/05 01:16:34;;;;;;;2.17;1.97;;;19.90;42.00;;;;;;5082443;27;20454;-61
2022/05/05 01:19:00;;;;;;;2.07;1.97;;;19.90;42.00;;;;;;5083270;27;20213;-61
2022/05/05 01:21:26;;;;;;;1.90;1.80;;;19.90;42.00;;;;;;5083518;27;20289;-62
2022/05/05 01:23:51;;;;;;;1.83;1.73;;;19.90;42.00;;;;;;5081936;27;20221;-61
2022/05/05 01:29:02;;;;;;;1.90;1.80;;;19.90;41.90;;;;;;5080844;27;20270;-62
2022/05/05 01:31:27;;;;;;;1.70;1.60;;;19.90;42.00;;;;;;5080810;27;20464;-61
2022/05/05 01:33:53;;;;;;;2.23;2.10;;;19.90;42.00;;;;;;5079769;27;20479;-61
2022/05/05 01:36:19;;;;;;;1.90;1.80;;;19.90;42.00;;;;;;5081744;27;20235;-60
2022/05/05 01:38:44;;;;;;;1.80;1.70;;;19.90;42.00;;;;;;5080106;27;20225;-61
2022/05/05 01:41:14;;;;;;;1.80;1.70;;;19.90;42.00;;;;;;5079630;27;20222;-61
2022/05/05 01:43:43;;;;;;;2.00;1.90;;;19.90;42.00;;;;;;5081529;27;20218;-61
2022/05/05 01:46:09;;;;;;;2.07;1.97;;;19.90;42.10;;;;;;5080553;27;20453;-61
2022/05/05 01:48:34;;;;;;;1.70;1.60;;;19.90;42.10;;;;;;5080412;27;20466;-62
2022/05/05 01:51:01;;;;;;;2.00;1.90;;;19.90;42.00;;;;;;5080129;27;20666;-61
2022/05/05 01:53:27;;;;;;;1.70;1.60;;;19.90;42.00;;;;;;5082623;27;20220;-60
2022/05/05 01:55:53;;;;;;;1.80;1.70;;;19.90;42.00;;;;;;5086464;27;20864;-60
2022/05/05 01:58:19;;;;;;;2.00;1.90;;;19.90;42.00;;;;;;5082943;27;20233;-61
2022/05/05 02:00:45;;;;;;;1.67;1.57;;;19.90;42.00;;;;;;5078961;27;20291;-61
2022/05/05 02:03:13;;;;;;;1.70;1.60;;;19.90;42.10;;;;;;5079603;27;20946;-61
2022/05/05 02:05:40;;;;;;;1.97;1.80;;;19.90;42.00;;;;;;5077426;27;20221;-61
2022/05/05 02:08:06;;;;;;;2.00;1.80;;;19.90;42.10;;;;;;5079361;27;20438;-61
2022/05/05 02:10:32;;;;;;;1.93;1.83;;;19.90;42.00;;;;;;5077986;28;20441;-61
2022/05/05 02:12:58;;;;;;;2.00;1.90;;;19.90;42.10;;;;;;5080459;27;20883;-62
2022/05/05 02:15:24;;;;;;;1.90;1.80;;;19.90;42.00;;;;;;5080498;27;20242;-61
2022/05/05 02:17:51;;;;;;;1.70;1.60;;;19.90;42.00;;;;;;5078827;27;20505;-60
2022/05/05 02:20:16;;;;;;;2.07;1.97;;;19.90;42.10;;;;;;5078094;27;20453;-61
2022/05/05 02:22:42;;;;;;;1.90;1.60;;;19.90;42.10;;;;;;5077307;27;20915;-61
2022/05/05 02:25:08;;;;;;;3.10;1.70;;;19.80;42.00;;;;;;5085168;28;20239;-61
2022/05/05 02:27:48;;;;;;;1.90;1.80;;;19.90;42.10;;;;;;5082778;27;20298;-60
2022/05/05 02:30:14;;;;;;;1.90;1.80;;;19.90;42.10;;;;;;5085010;27;20229;-61
2022/05/05 02:32:42;;;;;;;2.20;2.00;;;19.90;42.10;;;;;;5079974;27;20453;-61
2022/05/05 02:35:08;;;;;;;1.90;1.80;;;19.80;42.00;;;;;;5080142;27;20454;-61
2022/05/05 02:40:17;;;;;;;1.93;1.83;;;19.90;42.10;;;;;;5076872;27;20528;-61
2022/05/05 02:42:43;;;;;;;1.97;1.87;;;19.90;42.10;;;;;;5078630;27;20813;-61
2022/05/05 02:45:09;;;;;;;2.03;1.87;;;19.80;42.10;;;;;;5075894;28;20230;-60
2022/05/05 02:47:34;;;;;;;1.80;1.70;;;19.90;42.10;;;;;;5077500;27;20218;-61
2022/05/05 02:50:00;;;;;;;2.20;2.10;;;19.90;42.10;;;;;;5078281;28;20447;-61
2022/05/05 02:52:26;;;;;;;1.90;1.80;;;19.90;42.10;;;;;;5079070;27;20273;-61
2022/05/05 02:54:51;;;;;;;2.00;1.90;;;19.90;42.10;;;;;;5078000;27;20249;-62
2022/05/05 02:57:23;;;;;;;1.70;1.60;;;19.80;42.00;;;;;;5079488;27;20230;-61
2022/05/05 02:59:53;;;;;;;1.80;1.70;;;19.80;42.00;;;;;;5078788;28;20225;-61
2022/05/05 03:02:19;;;;;;;1.83;1.73;;;19.90;42.10;;;;;;5081651;27;20484;-61
2022/05/05 03:04:45;;;;;;;2.03;1.93;;;19.80;42.00;;;;;;5079025;27;20453;-60
2022/05/05 03:07:11;;;;;;;1.90;1.80;;;19.90;42.00;;;;;;5080236;27;20446;-61
2022/05/05 03:09:37;;;;;;;1.97;1.87;;;19.80;42.00;;;;;;5075049;27;20659;-61
2022/05/05 03:12:03;;;;;;;1.90;1.80;;;19.90;42.10;;;;;;5077351;27;20240;-62
2022/05/05 03:14:29;;;;;;;2.10;2.00;;;19.90;42.10;;;;;;5078218;27;21069;-61
2022/05/05 03:16:54;;;;;;;2.30;2.10;;;19.90;42.10;;;;;;5077742;27;20458;-61
2022/05/05 03:19:20;;;;;;;1.70;1.60;;;19.80;42.00;;;;;;5078871;27;20247;-61
2022/05/05 03:21:45;;;;;;;1.97;1.87;;;19.80;42.00;;;;;;5080827;27;20234;-60
2022/05/05 03:24:12;;;;;;;1.97;1.87;;;19.80;42.00;;;;;;5078527;27;20217;-61
2022/05/05 03:26:37;;;;;;;2.00;1.70;;;19.90;42.10;;;;;;5079147;27;20229;-61
2022/05/05 03:29:04;;;;;;;1.90;1.80;;;19.80;42.00;;;;;;5079810;27;20453;-61
2022/05/05 03:31:30;;;;;;;1.70;1.60;;;19.80;42.00;;;;;;5079612;27;20237;-61
2022/05/05 03:33:56;;;;;;;2.07;1.90;;;19.80;42.00;;;;;;5078667;27;20807;-61
2022/05/05 03:36:23;;;;;;;2.23;2.13;;;19.90;42.20;;;;;;5080980;27;20844;-61
2022/05/05 03:38:52;;;;;;;1.83;1.73;;;19.90;42.10;;;;;;5078564;27;20229;-61
2022/05/05 03:41:19;;;;;;;2.00;1.90;;;19.90;42.10;;;;;;5080711;27;21065;-61
2022/05/05 03:43:45;;;;;;;2.23;2.13;;;19.80;42.00;;;;;;5079297;27;20455;-61
2022/05/05 03:46:10;;;;;;;2.27;2.17;;;19.80;42.00;;;;;;5082869;27;20466;-61
2022/05/05 03:48:36;;;;;;;2.10;2.00;;;19.80;42.10;;;;;;5080612;27;20217;-60
2022/05/05 03:51:01;;;;;;;1.70;1.60;;;19.90;42.10;;;;;;5080984;27;20236;-61
2022/05/05 03:53:27;;;;;;;1.80;1.70;;;19.90;42.10;;;;;;5085259;28;20236;-60
2022/05/05 03:55:52;;;;;;;1.97;1.87;;;19.80;42.00;;;;;;5081563;27;20225;-61
2022/05/05 03:58:18;;;;;;;1.73;1.63;;;19.80;42.00;;;;;;5083376;27;20673;-60
2022/05/05 04:00:45;;;;;;;1.80;1.70;;;19.90;42.10;;;;;;5080811;28;20671;-61
2022/05/05 04:05:55;;;;;;;1.93;1.83;;;19.80;42.00;;;;;;5074166;28;20918;-60
2022/05/05 04:08:20;;;;;;;2.10;2.00;;;19.80;42.00;;;;;;5080303;27;20473;-61
2022/05/05 04:10:46;;;;;;;2.20;2.10;;;19.80;42.00;;;;;;5082708;27;20292;-61
2022/05/05 04:13:12;;;;;;;1.90;1.80;;;19.80;42.00;;;;;;5081644;27;20308;-61
2022/05/05 04:15:37;;;;;;;1.80;1.70;;;19.80;42.00;;;;;;5076286;28;20229;-61
2022/05/05 04:18:05;;;;;;;2.00;1.90;;;19.90;42.10;;;;;;5078657;27;20454;-61
2022/05/05 04:20:31;;;;;;;1.90;1.80;;;19.80;42.00;;;;;;5080781;27;20225;-61
2022/05/05 04:22:57;;;;;;;1.93;1.83;;;19.80;42.00;;;;;;5081568;27;20841;-61
2022/05/05 04:25:23;;;;;;;1.70;1.60;;;19.80;42.00;;;;;;5077726;27;20225;-61
2022/05/05 04:27:49;;;;;;;1.80;1.70;;;19.90;42.10;;;;;;5078241;27;20232;-61
2022/05/05 04:30:16;;;;;;;2.00;1.90;;;19.90;42.10;;;;;;5081682;27;20277;-60
2022/05/05 04:32:42;;;;;;;1.80;1.70;;;19.80;42.00;;;;;;5078329;27;20437;-61
2022/05/05 04:35:08;;;;;;;1.97;1.87;;;19.80;42.00;;;;;;5079924;27;21067;-62
2022/05/05 04:37:34;;;;;;;1.97;1.87;;;19.80;42.00;;;;;;5077132;27;20528;-59
2022/05/05 04:40:00;;;;;;;2.00;1.90;;;19.80;42.10;;;;;;5077742;27;20458;-60
2022/05/05 04:42:25;;;;;;;2.30;2.20;;;19.90;42.10;;;;;;5075735;27;20263;-63
2022/05/05 04:44:51;;;;;;;1.87;1.77;;;19.80;42.00;;;;;;5088430;27;20667;-61
2022/05/05 04:47:17;;;;;;;1.77;1.67;;;19.90;42.10;;;;;;5082024;27;20220;-63
2022/05/05 04:49:42;;;;;;;1.83;1.73;;;19.90;42.10;;;;;;5082684;28;20457;-62
2022/05/05 04:52:08;;;;;;;1.63;1.53;;;19.90;42.10;;;;;;5076751;28;20229;-60
2022/05/05 04:54:34;;;;;;;2.10;2.00;;;19.90;42.00;;;;;;5079079;27;20632;-61
2022/05/05 04:57:00;;;;;;;2.03;1.93;;;19.90;42.00;;;;;;5083149;27;20241;-60
2022/05/05 04:59:26;;;;;;;2.30;2.20;;;19.90;42.00;;;;;;5082370;28;20304;-60
2022/05/05 05:01:52;;;;;;;5.30;2.50;;;19.90;42.00;;;;;;5081839;27;20867;-61
2022/05/05 05:04:17;;;;;;;4.00;2.43;;;19.90;42.10;;;;;;5082588;27;20223;-63
2022/05/05 05:06:43;;;;;;;1.93;1.83;;;19.90;42.10;;;;;;5082472;27;20619;-60
2022/05/05 05:09:09;;;;;;;2.10;2.00;;;19.90;42.00;;;;;;5083308;27;20682;-60
2022/05/05 05:11:35;;;;;;;1.90;1.80;;;19.90;42.00;;;;;;5083403;27;20229;-60
2022/05/05 05:14:00;;;;;;;2.20;1.90;;;19.90;42.10;;;;;;5081433;27;20221;-61
2022/05/05 05:16:26;;;;;;;1.80;1.70;;;19.90;42.00;;;;;;5080224;28;20470;-59
2022/05/05 05:18:53;;;;;;;2.10;2.00;;;19.90;42.00;;;;;;5080011;27;20217;-60
2022/05/05 05:21:20;;;;;;;2.30;2.10;;;19.90;42.10;;;;;;5080240;27;20222;-59
2022/05/05 05:23:45;;;;;;;3.93;1.90;;;19.90;42.00;;;;;;5082129;27;20466;-60
2022/05/05 05:26:13;;;;;;;1.80;1.70;;;19.90;42.00;;;;;;5041613;28;20466;-61
2022/05/05 05:28:39;;;;;;;1.93;1.83;;;19.90;42.00;;;;;;5052723;28;20253;-63
2022/05/05 05:31:05;;;;;;;2.10;2.00;;;19.90;42.00;;;;;;5058751;28;20540;-64
2022/05/05 05:33:30;;;;;;;2.03;1.93;;;19.90;42.00;;;;;;5072735;27;20513;-66
2022/05/05 05:35:56;;;;;;;2.00;1.90;;;19.90;42.10;;;;;;5037154;28;20359;-64
2022/05/05 05:38:21;;;;;;;7.43;2.10;;;19.90;42.10;;;;;;5067387;28;20252;-65
2022/05/05 05:40:47;;;;;;;1.80;1.70;;;19.80;42.00;;;;;;5071633;28;20336;-60
2022/05/05 05:43:13;;;;;;;1.77;1.67;;;19.80;42.00;;;;;;5086232;27;20335;-60
2022/05/05 05:45:39;;;;;;;1.93;1.73;;;19.80;42.00;;;;;;5088311;27;20520;-60
2022/05/05 05:48:06;;;;;;;2.10;2.00;;;19.80;42.00;;;;;;5081481;27;20221;-59
2022/05/05 05:50:32;;;;;;;2.37;1.80;;;19.80;42.00;;;;;;5079415;27;20230;-58
2022/05/05 05:52:58;;;;;;;2.20;2.03;;;19.80;42.00;;;;;;5080928;27;20446;-59
2022/05/05 05:55:24;;;;;;;2.20;2.10;;;19.80;42.00;;;;;;5075343;27;20221;-60
2022/05/05 05:57:49;;;;;;;2.13;2.03;;;19.80;42.00;;;;;;5080006;27;20443;-60
2022/05/05 06:00:15;;;;;;;3.43;2.23;;;19.80;41.90;;;;;;5083201;27;20217;-61
2022/05/05 06:05:26;;;;;;;3.50;3.00;;;19.80;41.60;;;;;;5082080;27;20461;-56
2022/05/05 06:07:52;;;;;;;3.30;2.30;;;19.80;41.20;;;;;;5081802;27;20441;-56
2022/05/05 06:10:18;;;;;;;2.00;1.90;;;19.90;41.30;;;;;;5082912;27;20481;-57
2022/05/05 06:12:44;;;;;;;3.10;2.37;;;19.80;41.10;;;;;;5080565;27;20248;-57
2022/05/05 06:15:10;;;;;;;2.30;2.10;;;19.80;41.10;;;;;;5071908;27;20585;-57
2022/05/05 06:17:36;;;;;;;2.33;2.13;;;19.80;41.00;;;;;;5080784;28;20698;-56
2022/05/05 06:20:02;;;;;;;2.43;2.23;;;19.80;41.00;;;;;;5082590;27;20442;-57
2022/05/05 06:22:28;;;;;;;2.27;2.17;;;19.80;40.90;;;;;;5082266;27;20233;-56
2022/05/05 06:24:53;;;;;;;2.13;1.70;;;19.80;41.00;;;;;;5081061;27;20453;-58
2022/05/05 06:27:19;;;;;;;1.70;1.60;;;19.80;41.00;;;;;;5088431;27;20224;-56
2022/05/05 06:29:44;;;;;;;2.13;1.97;;;19.80;40.90;;;;;;5082287;27;20320;-56
2022/05/05 06:32:11;;;;;;;2.17;2.07;;;19.80;41.00;;;;;;5087299;27;20231;-56
2022/05/05 06:34:37;;;;;;;1.90;1.80;;;19.80;40.90;;;;;;5079935;27;20232;-57
2022/05/05 06:37:03;;;;;;;1.93;1.83;;;19.80;41.00;;;;;;5080067;27;20450;-57
2022/05/05 06:39:28;;;;;;;1.80;1.70;;;19.80;41.00;;;;;;5078044;27;20225;-56
2022/05/05 06:41:54;;;;;;;1.80;1.70;;;19.90;41.10;;;;;;5085257;27;20224;-56
2022/05/05 06:44:20;;;;;;;2.07;1.97;;;19.80;41.00;;;;;;5080996;27;20209;-57
2022/05/05 06:46:46;;;;;;;1.73;1.63;;;19.90;41.10;;;;;;5081245;27;20455;-56
2022/05/05 06:49:12;;;;;;;2.07;1.87;;;19.90;41.10;;;;;;5077305;28;20218;-56
2022/05/05 06:51:38;;;;;;;1.67;1.57;;;19.80;41.00;;;;;;5083938;27;20389;-57
2022/05/05 06:54:04;;;;;;;1.97;1.87;;;19.80;41.10;;;;;;5114056;27;20498;-57
2022/05/05 06:56:30;;;;;;;1.83;1.73;;;19.90;41.20;;;;;;5081476;27;20848;-57
2022/05/05 06:58:55;;;;;;;2.17;1.87;;;19.80;41.10;;;;;;5077087;27;20225;-56
2022/05/05 07:06:49;;;;;;;2.20;2.10;;;19.80;41.20;;;;;;5088102;27;21022;-57
2022/05/05 07:11:59;;;;;;;2.33;2.13;;;19.80;41.30;;;;;;5080641;27;20240;-56
2022/05/05 07:14:25;;;;;;;2.10;1.80;;;19.90;41.50;;;;;;5082561;27;20416;-56
2022/05/05 07:16:50;;;;;;;2.10;1.90;;;19.80;41.30;;;;;;5081486;27;20243;-56
2022/05/05 07:19:16;;;;;;;2.90;2.13;;;19.80;41.40;;;;;;5079147;27;20218;-56
2022/05/05 07:21:41;;;;;;;2.20;2.10;;;19.80;41.30;;;;;;5078774;28;20227;-58
2022/05/05 07:24:07;;;;;;;2.30;1.70;;;19.80;41.50;;;;;;5082069;27;20320;-58
2022/05/05 07:26:33;;;;;;;1.97;1.87;;;19.80;41.50;;;;;;5078046;27;20256;-57
2022/05/05 07:28:58;;;;;;;2.73;2.57;;;19.80;41.50;;;;;;5084932;27;20229;-56
2022/05/05 07:31:24;;;;;;;1.90;1.80;;;19.80;41.50;;;;;;5088343;27;20245;-59
2022/05/05 07:33:49;;;;;;;1.80;1.70;;;19.80;41.60;;;;;;5113637;27;20266;-59
2022/05/05 07:36:15;;;;;;;1.90;1.80;;;19.80;41.60;;;;;;5082875;27;20212;-56
2022/05/05 07:38:40;;;;;;;2.30;2.10;;;19.80;41.70;;;;;;5079930;27;20263;-57
2022/05/05 07:41:06;;;;;;;1.93;1.83;;;19.80;41.70;;;;;;5080282;27;20603;-57
2022/05/05 07:43:31;;;;;;;2.53;2.10;;;19.80;41.70;;;;;;5088252;27;20224;-56
2022/05/05 07:45:57;;;;;;;2.03;1.90;;;19.80;41.70;;;;;;5084999;27;20261;-57
2022/05/05 07:48:23;;;;;;;1.90;1.80;;;19.80;41.70;;;;;;5076083;27;20231;-57
2022/05/05 07:50:48;;;;;;;2.13;2.03;;;19.80;41.80;;;;;;5080263;28;20342;-56
2022/05/05 07:53:14;;;;;;;1.87;1.77;;;19.80;41.80;;;;;;5078877;27;20213;-57
2022/05/05 07:55:40;;;;;;;2.00;1.90;;;19.80;41.80;;;;;;5082934;27;20574;-56
2022/05/05 07:58:06;;;;;;;2.00;1.90;;;19.80;41.80;;;;;;5083170;27;20445;-56
2022/05/05 08:00:32;;;;;;;3.03;2.83;;;19.80;41.80;;;;;;5086870;27;20261;-56
2022/05/05 08:02:57;;;;;;;1.90;1.80;;;19.80;41.90;;;;;;5091629;27;20726;-56
2022/05/05 08:05:23;;;;;;;1.87;1.77;;;19.80;41.80;;;;;;5085836;27;20232;-58
2022/05/05 08:07:49;;;;;;;1.90;1.80;;;19.80;41.90;;;;;;5084123;27;20229;-57
2022/05/05 08:10:17;;;;;;;2.60;2.10;;;19.80;41.90;;;;;;5082821;27;20222;-57
2022/05/05 08:12:45;;;;;;;1.80;1.70;;;19.80;41.90;;;;;;5079687;27;20451;-57
2022/05/05 08:15:11;;;;;;;1.70;1.60;;;19.80;41.90;;;;;;5080795;27;20813;-56
2022/05/05 08:17:37;;;;;;;2.20;1.63;;;19.80;41.90;;;;;;5081222;27;20458;-56
2022/05/05 08:20:04;;;;;;;2.80;1.70;;;19.80;41.90;;;;;;5083712;27;20448;-56
2022/05/05 08:22:30;;;;;;;1.80;1.70;;;19.80;42.00;;;;;;5082392;28;20670;-56
2022/05/05 08:30:24;;;;;;;3.63;1.80;;;19.80;42.00;;;;;;5083343;27;20547;-56
2022/05/05 08:32:50;;;;;;;1.87;1.77;;;19.80;42.00;;;;;;5086142;27;20811;-56
2022/05/05 08:35:15;;;;;;;2.10;2.00;;;19.80;42.70;;;;;;5084646;27;20716;-57
2022/05/05 08:37:41;;;;;;;1.90;1.80;;;19.80;42.00;;;;;;5085296;27;20291;-58
2022/05/05 08:40:09;;;;;;;2.03;1.93;;;19.80;41.90;;;;;;5086437;27;20214;-56
2022/05/05 08:42:35;;;;;;;1.77;1.67;;;19.80;42.00;;;;;;5087798;27;20623;-57
2022/05/05 08:45:01;;;;;;;2.20;2.10;;;19.80;41.90;;;;;;5083047;27;21019;-57
2022/05/05 08:47:31;;;;;;;2.10;2.00;;;19.80;41.90;;;;;;5088392;27;20697;-57
2022/05/05 08:49:58;;;;;;;2.10;1.90;;;19.80;42.00;;;;;;5081423;27;20229;-56
2022/05/05 08:52:25;;;;;;;1.80;1.70;;;19.80;41.90;;;;;;5092735;27;20460;-57
2022/05/05 08:54:51;;;;;;;1.80;1.70;;;19.80;42.00;;;;;;5089036;27;20468;-57
2022/05/05 08:57:17;;;;;;;1.80;1.70;;;19.80;41.90;;;;;;5083801;28;20458;-57
2022/05/05 08:59:42;;;;;;;1.90;1.80;;;19.80;42.00;;;;;;5080029;27;20279;-57
2022/05/05 09:02:10;;;;;;;2.23;1.83;;;19.80;42.00;;;;;;5083856;27;20221;-56
2022/05/05 09:04:36;;;;;;;1.80;1.70;;;19.80;42.00;;;;;;5090073;27;20446;-57
2022/05/05 09:07:01;;;;;;;2.43;2.23;;;19.80;42.00;;;;;;5112667;27;20942;-56
2022/05/05 09:09:31;;;;;;;2.13;2.03;;;19.80;42.00;;;;;;5084753;27;20222;-56
2022/05/05 09:12:15;;;;;;;1.90;1.80;;;19.80;42.00;;;;;;5078171;27;20257;-56
2022/05/05 09:14:44;;;;;;;2.13;2.03;;;19.80;42.00;;;;;;5082353;27;20874;-57
2022/05/05 09:17:13;;;;;;;1.90;1.80;;;19.80;42.00;;;;;;5111849;27;20466;-56
2022/05/05 09:19:40;;;;;;;2.10;2.00;;;19.80;42.00;;;;;;5084540;27;20810;-58
2022/05/05 09:22:06;;;;;;;1.83;1.73;;;19.80;42.80;;;;;;5084302;27;20449;-57
2022/05/05 09:24:35;;;;;;;1.90;1.80;;;19.80;42.00;;;;;;5083518;27;20459;-57
2022/05/05 09:27:18;;;;;;;2.40;2.17;;;19.80;42.00;;;;;;5090381;27;20442;-57
2022/05/05 09:30:00;;;;;;;2.17;2.07;;;19.80;42.00;;;;;;5082547;27;20462;-56
2022/05/05 09:32:36;;;;;;;1.90;1.80;;;19.80;42.00;;;;;;5087790;27;20454;-57
2022/05/05 09:35:03;;;;;;;2.00;1.90;;;19.80;42.10;;;;;;5090702;27;20460;-56
2022/05/05 09:37:29;;;;;;;2.10;2.00;;;19.80;42.00;;;;;;5094365;27;20454;-57
2022/05/05 09:39:57;;;;;;;2.63;2.13;;;19.80;42.10;;;;;;5080438;27;20515;-56
2022/05/05 09:42:41;;;;;;;2.10;2.00;;;19.80;42.00;;;;;;5086121;27;20521;-57
2022/05/05 09:45:18;;;;;;;2.43;1.90;;;19.80;42.00;;;;;;5079074;28;20922;-58
2022/05/05 09:47:52;;;;;;;2.00;1.90;;;19.80;42.10;;;;;;5082102;27;20492;-57
2022/05/05 09:50:20;;;;;;;2.20;2.10;;;19.80;42.10;;;;;;5087454;27;20458;-57
2022/05/05 09:58:21;;;;;;;2.10;2.00;;;19.80;42.10;;;;;;5078568;27;20465;-56
2022/05/05 10:04:00;;;;;;;2.40;2.30;;;19.80;42.10;;;;;;5085819;27;20473;-56
2022/05/05 10:06:31;;;;;;;3.30;2.00;;;19.80;42.10;;;;;;5079804;27;20537;-56
2022/05/05 10:09:05;;;;;;;2.20;2.10;;;19.70;42.00;;;;;;5086204;27;20442;-57
2022/05/05 10:11:31;;;;;;;2.07;1.97;;;19.70;42.00;;;;;;5085520;27;20560;-59
2022/05/05 10:14:00;;;;;;;2.23;2.03;;;19.80;42.10;;;;;;5088036;27;20469;-57
2022/05/05 10:16:26;;;;;;;2.40;2.30;;;19.80;42.90;;;;;;5080347;27;20457;-57
2022/05/05 10:18:52;;;;;;;2.23;2.13;;;19.70;42.10;;;;;;5078500;27;20541;-58
2022/05/05 10:21:41;;;;;;;2.50;2.40;;;19.70;42.10;;;;;;5084963;27;20484;-58
2022/05/05 10:24:25;;;;;;;2.47;2.30;;;19.70;42.10;;;;;;5088892;27;20458;-60
2022/05/05 10:26:55;;;;;;;2.17;2.07;;;19.70;42.00;;;;;;5083845;27;20589;-58
2022/05/05 10:29:41;;;;;;;2.20;2.10;;;19.70;42.10;;;;;;5084084;27;20489;-57
2022/05/05 10:32:18;;;;;;;2.17;2.07;;;19.70;42.10;;;;;;5068058;28;20454;-56
2022/05/05 10:34:46;;;;;;;2.37;2.23;;;19.70;42.10;;;;;;5083796;27;20461;-57
2022/05/05 10:37:13;;;;;;;2.80;2.60;;;19.70;42.00;;;;;;5079776;27;20889;-57
2022/05/05 10:39:59;;;;;;;2.20;2.00;;;19.70;42.10;;;;;;5081871;27;20904;-56
2022/05/05 10:42:42;;;;;;;2.67;2.47;;;19.70;42.10;;;;;;5078648;27;20438;-56
2022/05/05 10:45:18;;;;;;;2.20;2.10;;;19.70;42.10;;;;;;5080638;27;20442;-58
2022/05/05 10:47:54;;;;;;;2.60;2.40;;;19.70;42.20;;;;;;5080961;27;20476;-57
2022/05/05 10:50:43;;;;;;;2.40;2.30;;;19.70;42.20;;;;;;5079874;27;20435;-57
2022/05/05 10:53:25;;;;;;;2.53;2.37;;;19.70;42.20;;;;;;5081525;27;20944;-57
2022/05/05 10:55:51;;;;;;;2.33;2.23;;;19.70;42.10;;;;;;5076980;27;21321;-57
2022/05/05 10:58:53;;;;;;;2.37;2.27;;;19.70;42.20;;;;;;5079619;27;20446;-57
2022/05/05 11:01:19;;;;;;;2.67;2.47;;;19.70;42.30;;;;;;5085096;28;20619;-56
2022/05/05 11:04:03;;;;;;;2.80;2.60;;;19.70;42.30;;;;;;5080782;27;20615;-58
2022/05/05 11:06:30;;;;;;;2.60;2.40;;;19.70;42.30;;;;;;5078436;27;20217;-56
2022/05/05 11:08:56;;;;;;;2.57;2.37;;;19.70;42.30;;;;;;5081455;27;21222;-57
2022/05/05 11:11:40;;;;;;;2.80;2.60;;;19.70;42.30;;;;;;5084557;27;20515;-56
2022/05/05 11:23:12;;;;;;;2.80;2.60;;;19.70;42.40;;;;;;5072659;28;20449;-56
2022/05/05 11:25:43;;;;;;;2.43;2.23;;;19.70;42.40;;;;;;5083355;27;20975;-58
2022/05/05 11:28:09;;;;;;;2.40;2.30;;;19.70;42.30;;;;;;5080381;27;20443;-57
2022/05/05 11:30:35;;;;;;;2.70;2.50;;;19.70;42.40;;;;;;5083872;27;20517;-56
2022/05/05 11:33:03;;;;;;;2.83;2.63;;;19.70;42.40;;;;;;5078874;28;20228;-57
2022/05/05 11:35:29;;;;;;;3.03;2.83;;;19.60;42.20;;;;;;5079588;27;20573;-56
2022/05/05 11:37:54;;;;;;;3.20;3.00;;;19.60;42.30;;;;;;5078643;28;20996;-56
2022/05/05 11:40:20;;;;;;;3.13;2.93;;;19.70;42.40;;;;;;5078170;27;20245;-56
2022/05/05 11:45:35;;;;;;;2.80;2.60;;;19.70;42.40;;;;;;5075330;28;20227;-57
2022/05/05 11:48:15;;;;;;;3.37;3.07;;;19.60;42.30;;;;;;5078542;28;20990;-56
2022/05/05 11:50:44;;;;;;;2.90;2.73;;;19.60;42.30;;;;;;5081341;27;20556;-57
2022/05/05 11:53:17;;;;;;;3.00;2.80;;;19.60;42.30;;;;;;5079452;27;20560;-57
2022/05/05 11:55:48;;;;;;;2.77;2.57;;;19.60;42.30;;;;;;5078723;27;20508;-58
2022/05/05 12:01:36;;;;;;;2.60;2.40;;;19.60;42.40;;;;;;5078316;27;20454;-57
2022/05/05 12:03:58;;;;;;;3.63;3.37;;;19.60;42.40;;;;;;5079944;27;20543;-56
2022/05/05 12:06:25;;;;;;;2.80;2.60;;;19.60;42.40;;;;;;5080888;27;20446;-56
2022/05/05 12:08:51;;;;;;;2.93;2.73;;;19.60;42.40;;;;;;5077969;27;20828;-57
2022/05/05 12:11:16;;;;;;;3.47;3.27;;;19.60;42.30;;;;;;5080055;27;20447;-56
2022/05/05 12:13:42;;;;;;;3.30;3.10;;;19.60;42.50;;;;;;5075665;27;20221;-56
2022/05/05 12:16:10;;;;;;;3.03;2.83;;;19.60;42.30;;;;;;5079770;27;20347;-57
2022/05/05 12:18:49;;;;;;;3.13;2.83;;;19.60;42.40;;;;;;5076371;28;20452;-57
2022/05/05 12:21:22;;;;;;;2.80;2.60;;;19.60;42.40;;;;;;5079633;27;20788;-57
2022/05/05 12:24:01;;;;;;;3.07;2.87;;;19.60;42.30;;;;;;5083383;27;20455;-57
2022/05/05 12:26:32;;;;;;;2.90;2.80;;;19.60;42.50;;;;;;5078440;27;20438;-57
2022/05/05 12:28:59;;;;;;;3.50;3.30;;;19.60;42.40;;;;;;5077620;28;20454;-59
2022/05/05 12:31:26;;;;;;;3.10;2.90;;;19.60;42.40;;;;;;5076450;28;20898;-56
2022/05/05 12:33:51;;;;;;;3.63;3.43;;;19.60;42.30;;;;;;5076984;28;20485;-57
2022/05/05 12:36:18;;;;;;;2.67;2.57;;;19.60;42.40;;;;;;5075732;27;20879;-57
2022/05/05 12:38:44;;;;;;;2.90;2.70;;;19.60;42.40;;;;;;5079226;27;20224;-57
2022/05/05 12:41:10;;;;;;;3.70;3.50;;;19.60;42.50;;;;;;5079346;27;20962;-57
2022/05/05 12:43:35;;;;;;;3.57;3.27;;;19.60;42.40;;;;;;5079687;27;20442;-57
2022/05/05 12:46:02;;;;;;;3.53;3.20;;;19.60;42.50;;;;;;5079421;27;20515;-57
2022/05/05 12:48:28;;;;;;;3.57;3.33;;;19.60;42.40;;;;;;5077125;27;20221;-57
2022/05/05 12:50:54;;;;;;;3.80;3.50;;;19.60;42.40;;;;;;5081505;27;20511;-57
2022/05/05 13:01:45;;;;;;;3.13;2.90;;;19.60;42.50;;;;;;5078794;27;20439;-57
2022/05/05 13:04:15;;;;;;;3.40;3.20;;;19.60;42.50;;;;;;5112109;27;20852;-57
2022/05/05 13:06:42;;;;;;;3.27;3.07;;;19.60;42.50;;;;;;5080187;27;20450;-58
2022/05/05 13:09:09;;;;;;;3.90;3.70;;;19.60;42.50;;;;;;5086650;27;20456;-57
2022/05/05 13:11:42;;;;;;;4.17;3.87;;;19.60;42.50;;;;;;5083446;27;20445;-57
2022/05/05 13:14:08;;;;;;;4.20;3.90;;;19.60;42.40;;;;;;5081860;27;20478;-58
2022/05/05 13:16:34;;;;;;;3.43;3.23;;;19.60;42.60;;;;;;5085803;27;20474;-57
2022/05/05 13:19:04;;;;;;;3.83;3.53;;;19.60;42.50;;;;;;5079822;27;20463;-56
2022/05/05 13:21:32;;;;;;;3.73;3.53;;;19.60;42.40;;;;;;5081538;27;20420;-57
2022/05/05 13:23:58;;;;;;;3.90;3.70;;;19.60;42.50;;;;;;5077964;27;20552;-57
2022/05/05 13:26:23;;;;;;;5.80;3.27;;;19.60;42.50;;;;;;5080926;27;21261;-57
2022/05/05 13:28:49;;;;;;;4.00;3.70;;;19.60;42.50;;;;;;5079808;27;20233;-58
2022/05/05 13:31:15;;;;;;;3.90;3.70;;;19.60;42.50;;;;;;5083862;27;20229;-57
2022/05/05 13:33:41;;;;;;;4.53;3.67;;;19.60;42.50;;;;;;5081363;27;20959;-57
2022/05/05 13:36:07;;;;;;;4.20;3.90;;;19.60;42.50;;;;;;5082847;27;20218;-57
2022/05/05 13:38:33;;;;;;;3.93;3.73;;;19.60;42.50;;;;;;5082656;27;20410;-56
2022/05/05 13:40:58;;;;;;;4.40;4.00;;;19.60;42.50;;;;;;5080465;27;21272;-57
2022/05/05 13:43:24;;;;;;;4.40;4.10;;;19.60;42.50;;;;;;5079875;27;20237;-57
2022/05/05 13:45:50;;;;;;;4.40;4.10;;;19.60;42.50;;;;;;5079271;27;20214;-57
2022/05/05 13:48:16;;;;;;;4.47;4.17;;;19.60;42.50;;;;;;5078970;27;20221;-57
2022/05/05 13:50:41;;;;;;;4.30;4.03;;;19.60;42.50;;;;;;5083423;27;20243;-58